createdAt,value
2023-01-02T00:00:21.815Z,13.2
2023-01-02T00:01:24.967Z,13.1
2023-01-02T00:02:28.451Z,13.1
2023-01-02T00:03:32.438Z,13.2
2023-01-02T00:04:35.849Z,13.2
2023-01-02T00:05:38.747Z,13.2
2023-01-02T00:06:41.749Z,13.1
2023-01-02T00:07:44.953Z,13.1
2023-01-02T00:08:47.673Z,13.1
2023-01-02T00:09:51.064Z,13.1
2023-01-02T00:10:53.961Z,13.1
2023-01-02T00:11:57.976Z,13.1
2023-01-02T00:13:01.045Z,13.1
2023-01-02T00:14:04.462Z,13.1
2023-01-02T00:15:07.303Z,13.1
2023-01-02T00:17:15.558Z,13.1
2023-01-02T00:18:18.632Z,13.1
2023-01-02T00:19:21.530Z,13.1
2023-01-02T00:20:25.323Z,13.1
2023-01-02T00:21:28.360Z,13.1
2023-01-02T00:22:31.180Z,13.1
2023-01-02T00:23:34.248Z,13.1
2023-01-02T00:24:37.214Z,13.1
2023-01-02T00:25:40.737Z,13.1
2023-01-02T00:26:43.930Z,13.1
2023-01-02T00:27:46.798Z,13.1
2023-01-02T00:28:49.927Z,13.1
2023-01-02T00:29:53.164Z,13.1
2023-01-02T00:30:56.705Z,13.1
2023-01-02T00:32:01.196Z,13.1
2023-01-02T00:33:04.804Z,13.1
2023-01-02T00:34:07.673Z,13.1
2023-01-02T00:35:10.738Z,13.1
2023-01-02T00:36:29.357Z,13.1
2023-01-02T00:37:33.403Z,13.1
2023-01-02T00:38:39.185Z,13.1
2023-01-02T00:39:42.062Z,13.1
2023-01-02T00:40:45.101Z,13.1
2023-01-02T00:41:48.531Z,13
2023-01-02T00:42:50.695Z,13.1
2023-01-02T00:43:53.509Z,13
2023-01-02T00:44:56.527Z,13.1
2023-01-02T00:45:59.617Z,13
2023-01-02T00:47:15.273Z,13
2023-01-02T00:48:18.511Z,13
2023-01-02T00:49:21.629Z,13
2023-01-02T00:50:24.641Z,13
2023-01-02T00:51:28.413Z,13
2023-01-02T00:52:32.177Z,13
2023-01-02T00:53:34.907Z,13
2023-01-02T00:54:37.732Z,13
2023-01-02T00:55:40.770Z,13
2023-01-02T00:56:43.866Z,13
2023-01-02T00:57:46.733Z,13
2023-01-02T00:58:50.034Z,13
2023-01-02T00:59:53.813Z,13
2023-01-02T01:00:56.793Z,13
2023-01-02T01:02:00.314Z,13
2023-01-02T01:03:05.199Z,13
2023-01-02T01:04:08.840Z,13
2023-01-02T01:05:12.631Z,13
2023-01-02T01:06:15.070Z,13
2023-01-02T01:07:17.816Z,13
2023-01-02T01:08:20.856Z,13
2023-01-02T01:09:24.338Z,13
2023-01-02T01:10:26.897Z,13
2023-01-02T01:11:29.985Z,13
2023-01-02T01:12:32.960Z,13
2023-01-02T01:13:36.745Z,13
2023-01-02T01:14:40.200Z,13
2023-01-02T01:15:43.655Z,12.9
2023-01-02T01:16:47.025Z,13
2023-01-02T01:17:50.122Z,12.9
2023-01-02T01:18:54.245Z,12.9
2023-01-02T01:19:57.340Z,12.9
2023-01-02T01:21:00.706Z,12.9
2023-01-02T01:22:03.793Z,12.9
2023-01-02T01:23:06.596Z,12.9
2023-01-02T01:24:09.600Z,12.9
2023-01-02T01:25:12.703Z,12.8
2023-01-02T01:26:16.423Z,12.8
2023-01-02T01:27:19.207Z,12.8
2023-01-02T01:28:22.329Z,12.8
2023-01-02T01:29:25.393Z,12.8
2023-01-02T01:30:28.447Z,12.8
2023-01-02T01:31:31.298Z,12.8
2023-01-02T01:32:34.550Z,12.8
2023-01-02T01:33:37.966Z,12.8
2023-01-02T01:34:41.951Z,12.8
2023-01-02T01:35:44.699Z,12.8
2023-01-02T01:36:48.047Z,12.8
2023-01-02T01:37:50.862Z,12.8
2023-01-02T01:38:54.501Z,12.8
2023-01-02T01:39:58.128Z,12.8
2023-01-02T01:41:01.779Z,12.8
2023-01-02T01:42:04.933Z,12.7
2023-01-02T01:43:08.343Z,12.7
2023-01-02T01:44:10.778Z,12.7
2023-01-02T01:45:13.922Z,12.8
2023-01-02T01:46:16.769Z,12.7
2023-01-02T01:47:20.240Z,12.8
2023-01-02T01:48:23.779Z,12.7
2023-01-02T01:49:26.587Z,12.7
2023-01-02T01:50:30.842Z,12.8
2023-01-02T01:51:34.274Z,12.8
2023-01-02T01:52:36.987Z,12.7
2023-01-02T01:53:40.139Z,12.7
2023-01-02T01:54:43.413Z,12.8
2023-01-02T01:55:46.411Z,12.8
2023-01-02T01:56:49.306Z,12.8
2023-01-02T01:57:52.659Z,12.8
2023-01-02T01:58:56.367Z,12.8
2023-01-02T01:59:59.379Z,12.8
2023-01-02T02:01:02.881Z,12.8
2023-01-02T02:02:06.681Z,12.8
2023-01-02T02:03:11.291Z,12.8
2023-01-02T02:04:15.063Z,12.8
2023-01-02T02:05:18.466Z,12.8
2023-01-02T02:06:22.296Z,12.8
2023-01-02T02:07:25.064Z,12.8
2023-01-02T02:08:28.520Z,12.7
2023-01-02T02:09:31.246Z,12.8
2023-01-02T02:10:34.765Z,12.7
2023-01-02T02:11:38.124Z,12.8
2023-01-02T02:12:40.635Z,12.7
2023-01-02T02:13:43.377Z,12.7
2023-01-02T02:14:46.817Z,12.7
2023-01-02T02:15:49.556Z,12.7
2023-01-02T02:16:53.451Z,12.7
2023-01-02T02:17:56.777Z,12.7
2023-01-02T02:18:59.926Z,12.7
2023-01-02T02:20:03.021Z,12.7
2023-01-02T02:21:06.696Z,12.7
2023-01-02T02:22:11.095Z,12.7
2023-01-02T02:23:14.015Z,12.6
2023-01-02T02:24:17.374Z,12.6
2023-01-02T02:25:20.351Z,12.6
2023-01-02T02:26:24.075Z,12.6
2023-01-02T02:27:27.423Z,12.6
2023-01-02T02:28:31.110Z,12.6
2023-01-02T02:29:34.589Z,12.6
2023-01-02T02:30:37.867Z,12.6
2023-01-02T02:31:40.760Z,12.6
2023-01-02T02:32:44.029Z,12.6
2023-01-02T02:33:48.037Z,12.6
2023-01-02T02:34:50.924Z,12.6
2023-01-02T02:35:54.106Z,12.6
2023-01-02T02:36:57.506Z,12.6
2023-01-02T02:38:01.176Z,12.7
2023-01-02T02:39:04.416Z,12.7
2023-01-02T02:40:07.785Z,12.6
2023-01-02T02:41:10.940Z,12.6
2023-01-02T02:42:14.026Z,12.7
2023-01-02T02:43:16.460Z,12.6
2023-01-02T02:44:19.276Z,12.6
2023-01-02T02:45:22.685Z,12.7
2023-01-02T02:46:25.559Z,12.6
2023-01-02T02:47:29.006Z,12.6
2023-01-02T02:48:32.407Z,12.6
2023-01-02T02:49:35.115Z,12.6
2023-01-02T02:50:37.655Z,12.6
2023-01-02T02:51:40.717Z,12.6
2023-01-02T02:52:44.188Z,12.6
2023-01-02T02:53:48.040Z,12.6
2023-01-02T02:54:51.091Z,12.6
2023-01-02T02:55:54.099Z,12.6
2023-01-02T02:56:56.894Z,12.6
2023-01-02T02:57:59.969Z,12.6
2023-01-02T02:59:02.759Z,12.6
2023-01-02T03:00:05.955Z,12.6
2023-01-02T03:01:09.187Z,12.6
2023-01-02T03:02:12.479Z,12.6
2023-01-02T03:03:17.206Z,12.6
2023-01-02T03:04:20.379Z,12.6
2023-01-02T03:05:22.620Z,12.6
2023-01-02T03:06:25.882Z,12.6
2023-01-02T03:07:28.963Z,12.5
2023-01-02T03:08:34.157Z,12.6
2023-01-02T03:09:38.086Z,12.5
2023-01-02T03:10:41.105Z,12.6
2023-01-02T03:11:44.892Z,12.6
2023-01-02T03:12:47.690Z,12.6
2023-01-02T03:13:50.417Z,12.5
2023-01-02T03:14:53.787Z,12.6
2023-01-02T03:15:56.876Z,12.5
2023-01-02T03:17:00.235Z,12.5
2023-01-02T03:18:03.343Z,12.6
2023-01-02T03:19:06.488Z,12.6
2023-01-02T03:20:10.155Z,12.6
2023-01-02T03:21:13.189Z,12.5
2023-01-02T03:22:16.589Z,12.5
2023-01-02T03:23:19.591Z,12.6
2023-01-02T03:24:23.077Z,12.5
2023-01-02T03:25:27.373Z,12.5
2023-01-02T03:26:29.938Z,12.5
2023-01-02T03:27:32.400Z,12.5
2023-01-02T03:28:35.399Z,12.5
2023-01-02T03:29:37.831Z,12.6
2023-01-02T03:30:41.032Z,12.6
2023-01-02T03:31:44.254Z,12.6
2023-01-02T03:32:47.503Z,12.6
2023-01-02T03:33:50.620Z,12.6
2023-01-02T03:34:53.798Z,12.6
2023-01-02T03:35:57.089Z,12.6
2023-01-02T03:37:00.150Z,12.6
2023-01-02T03:38:03.252Z,12.6
2023-01-02T03:39:06.366Z,12.7
2023-01-02T03:40:08.473Z,12.7
2023-01-02T03:41:12.476Z,12.7
2023-01-02T03:42:15.412Z,12.7
2023-01-02T03:43:18.594Z,12.7
2023-01-02T03:44:21.936Z,12.7
2023-01-02T03:45:25.393Z,12.7
2023-01-02T03:46:28.932Z,12.7
2023-01-02T03:47:31.953Z,12.7
2023-01-02T03:48:34.443Z,12.7
2023-01-02T03:49:37.496Z,12.7
2023-01-02T03:50:40.565Z,12.8
2023-01-02T03:51:43.356Z,12.7
2023-01-02T03:52:46.368Z,12.7
2023-01-02T03:53:49.793Z,12.8
2023-01-02T03:54:52.972Z,12.7
2023-01-02T03:55:56.464Z,12.8
2023-01-02T03:57:00.769Z,12.8
2023-01-02T03:58:04.182Z,12.8
2023-01-02T03:59:06.631Z,12.8
2023-01-02T04:00:09.665Z,12.8
2023-01-02T04:01:13.456Z,12.8
2023-01-02T04:02:18.111Z,12.8
2023-01-02T04:03:21.981Z,12.8
2023-01-02T04:04:25.552Z,12.8
2023-01-02T04:05:28.984Z,12.8
2023-01-02T04:06:31.885Z,12.8
2023-01-02T04:07:34.908Z,12.8
2023-01-02T04:08:38.322Z,12.8
2023-01-02T04:09:41.050Z,12.9
2023-01-02T04:10:43.764Z,12.9
2023-01-02T04:11:46.642Z,12.9
2023-01-02T04:12:50.884Z,12.9
2023-01-02T04:13:53.906Z,12.9
2023-01-02T04:14:56.713Z,12.9
2023-01-02T04:16:00.030Z,12.9
2023-01-02T04:17:03.011Z,12.9
2023-01-02T04:18:06.042Z,12.9
2023-01-02T04:19:09.779Z,12.9
2023-01-02T04:20:12.939Z,12.9
2023-01-02T04:21:15.676Z,12.9
2023-01-02T04:22:19.055Z,12.9
2023-01-02T04:23:21.208Z,12.9
2023-01-02T04:24:24.540Z,12.9
2023-01-02T04:25:27.256Z,12.9
2023-01-02T04:26:30.335Z,12.9
2023-01-02T04:27:32.917Z,12.9
2023-01-02T04:28:37.023Z,12.9
2023-01-02T04:29:40.457Z,12.9
2023-01-02T04:30:43.243Z,12.9
2023-01-02T04:31:46.944Z,12.9
2023-01-02T04:32:50.010Z,12.9
2023-01-02T04:33:53.121Z,12.9
2023-01-02T04:34:56.071Z,12.9
2023-01-02T04:35:58.869Z,12.9
2023-01-02T04:37:02.592Z,13
2023-01-02T04:38:06.214Z,13
2023-01-02T04:39:09.314Z,13
2023-01-02T04:40:12.363Z,13
2023-01-02T04:41:15.680Z,13
2023-01-02T04:42:18.854Z,13
2023-01-02T04:43:22.025Z,13
2023-01-02T04:44:25.972Z,13
2023-01-02T04:45:28.493Z,13.1
2023-01-02T04:46:31.779Z,13.1
2023-01-02T04:47:34.404Z,13.1
2023-01-02T04:48:37.740Z,13.1
2023-01-02T04:49:41.173Z,13.1
2023-01-02T04:50:44.488Z,13.1
2023-01-02T04:51:47.926Z,13.1
2023-01-02T04:52:50.756Z,13.1
2023-01-02T04:53:53.549Z,13.1
2023-01-02T04:54:56.096Z,13.2
2023-01-02T04:55:59.100Z,13.2
2023-01-02T04:57:02.192Z,13.2
2023-01-02T04:58:04.900Z,13.2
2023-01-02T04:59:07.678Z,13.2
2023-01-02T05:00:11.901Z,13.2
2023-01-02T05:01:15.986Z,13.2
2023-01-02T05:02:20.396Z,13.2
2023-01-02T05:03:23.824Z,13.2
2023-01-02T05:04:26.977Z,13.3
2023-01-02T05:05:29.998Z,13.3
2023-01-02T05:06:32.636Z,13.3
2023-01-02T05:07:35.917Z,13.3
2023-01-02T05:08:38.518Z,13.3
2023-01-02T05:09:42.525Z,13.4
2023-01-02T05:10:45.323Z,13.3
2023-01-02T05:11:48.125Z,13.4
2023-01-02T05:12:51.454Z,13.4
2023-01-02T05:13:54.515Z,13.4
2023-01-02T05:14:57.360Z,13.4
2023-01-02T05:16:01.699Z,13.4
2023-01-02T05:17:05.677Z,13.4
2023-01-02T05:18:09.046Z,13.4
2023-01-02T05:19:11.852Z,13.4
2023-01-02T05:20:15.581Z,13.4
2023-01-02T05:21:18.075Z,13.4
2023-01-02T05:22:20.906Z,13.4
2023-01-02T05:23:23.665Z,13.4
2023-01-02T05:24:26.822Z,13.4
2023-01-02T05:25:30.498Z,13.4
2023-01-02T05:26:33.703Z,13.4
2023-01-02T05:27:36.887Z,13.4
2023-01-02T05:28:39.721Z,13.4
2023-01-02T05:29:41.874Z,13.4
2023-01-02T05:30:44.884Z,13.4
2023-01-02T05:31:48.703Z,13.4
2023-01-02T05:32:51.925Z,13.4
2023-01-02T05:33:54.725Z,13.4
2023-01-02T05:34:58.147Z,13.4
2023-01-02T05:36:01.192Z,13.4
2023-01-02T05:37:04.290Z,13.4
2023-01-02T05:38:07.048Z,13.4
2023-01-02T05:39:09.292Z,13.4
2023-01-02T05:40:12.384Z,13.4
2023-01-02T05:41:15.545Z,13.4
2023-01-02T05:42:18.924Z,13.4
2023-01-02T05:43:22.383Z,13.4
2023-01-02T05:44:25.091Z,13.4
2023-01-02T05:45:28.169Z,13.4
2023-01-02T05:46:31.365Z,13.4
2023-01-02T05:47:35.707Z,13.4
2023-01-02T05:48:39.097Z,13.4
2023-01-02T05:49:42.454Z,13.4
2023-01-02T05:50:45.635Z,13.4
2023-01-02T05:51:48.979Z,13.4
2023-01-02T05:52:52.050Z,13.4
2023-01-02T05:53:55.194Z,13.4
2023-01-02T05:54:58.510Z,13.4
2023-01-02T05:56:01.488Z,13.4
2023-01-02T05:57:04.838Z,13.4
2023-01-02T05:58:08.009Z,13.4
2023-01-02T05:59:11.367Z,13.4
2023-01-02T06:00:14.369Z,13.4
2023-01-02T06:01:17.650Z,13.4
2023-01-02T06:02:20.955Z,13.4
2023-01-02T06:03:26.024Z,13.5
2023-01-02T06:04:29.422Z,13.5
2023-01-02T06:05:32.159Z,13.5
2023-01-02T06:06:34.892Z,13.5
2023-01-02T06:07:37.717Z,13.5
2023-01-02T06:08:41.095Z,13.5
2023-01-02T06:09:44.287Z,13.5
2023-01-02T06:10:47.067Z,13.5
2023-01-02T06:11:49.864Z,13.5
2023-01-02T06:12:53.243Z,13.5
2023-01-02T06:13:56.874Z,13.5
2023-01-02T06:14:59.615Z,13.5
2023-01-02T06:16:02.433Z,13.5
2023-01-02T06:17:06.088Z,13.5
2023-01-02T06:18:09.466Z,13.5
2023-01-02T06:19:13.671Z,13.5
2023-01-02T06:20:16.790Z,13.4
2023-01-02T06:21:19.792Z,13.4
2023-01-02T06:22:22.060Z,13.4
2023-01-02T06:23:24.996Z,13.5
2023-01-02T06:24:27.408Z,13.4
2023-01-02T06:25:30.810Z,13.4
2023-01-02T06:26:36.238Z,13.4
2023-01-02T06:27:38.667Z,13.4
2023-01-02T06:28:41.556Z,13.4
2023-01-02T06:29:44.565Z,13.4
2023-01-02T06:30:47.371Z,13.4
2023-01-02T06:31:52.818Z,13.4
2023-01-02T06:32:56.033Z,13.4
2023-01-02T06:33:59.170Z,13.4
2023-01-02T06:35:03.296Z,13.4
2023-01-02T06:36:06.156Z,13.4
2023-01-02T06:37:11.345Z,13.5
2023-01-02T06:38:14.708Z,13.5
2023-01-02T06:39:18.064Z,13.5
2023-01-02T06:40:21.230Z,13.5
2023-01-02T06:41:24.682Z,13.5
2023-01-02T06:42:27.784Z,13.5
2023-01-02T06:43:31.141Z,13.5
2023-01-02T06:44:34.430Z,13.5
2023-01-02T06:45:37.303Z,13.5
2023-01-02T06:46:41.020Z,13.5
2023-01-02T06:47:43.818Z,13.5
2023-01-02T06:48:47.565Z,13.5
2023-01-02T06:49:50.719Z,13.5
2023-01-02T06:50:54.960Z,13.5
2023-01-02T06:51:57.941Z,13.5
2023-01-02T06:53:00.167Z,13.5
2023-01-02T06:54:03.279Z,13.5
2023-01-02T06:55:05.825Z,13.5
2023-01-02T06:56:09.820Z,13.5
2023-01-02T06:57:13.624Z,13.5
2023-01-02T06:58:20.471Z,13.5
2023-01-02T06:59:23.002Z,13.5
2023-01-02T07:00:25.787Z,13.5
2023-01-02T07:01:29.230Z,13.5
2023-01-02T07:02:33.035Z,13.5
2023-01-02T07:03:36.026Z,13.5
2023-01-02T07:04:39.425Z,13.5
2023-01-02T07:05:42.208Z,13.5
2023-01-02T07:06:45.877Z,13.5
2023-01-02T07:07:49.525Z,13.5
2023-01-02T07:08:52.955Z,13.5
2023-01-02T07:09:56.352Z,13.5
2023-01-02T07:10:59.816Z,13.5
2023-01-02T07:12:02.640Z,13.6
2023-01-02T07:13:05.724Z,13.6
2023-01-02T07:14:09.060Z,13.6
2023-01-02T07:15:12.088Z,13.6
2023-01-02T07:16:15.852Z,13.6
2023-01-02T07:17:20.122Z,13.5
2023-01-02T07:18:22.918Z,13.5
2023-01-02T07:19:25.456Z,13.5
2023-01-02T07:20:28.746Z,13.5
2023-01-02T07:21:32.226Z,13.5
2023-01-02T07:22:35.944Z,13.5
2023-01-02T07:23:39.802Z,13.6
2023-01-02T07:24:42.510Z,13.6
2023-01-02T07:25:45.827Z,13.6
2023-01-02T07:26:48.592Z,13.6
2023-01-02T07:27:51.318Z,13.6
2023-01-02T07:28:54.603Z,13.6
2023-01-02T07:29:57.673Z,13.6
2023-01-02T07:31:00.448Z,13.6
2023-01-02T07:32:04.071Z,13.6
2023-01-02T07:33:07.361Z,13.6
2023-01-02T07:34:10.442Z,13.7
2023-01-02T07:35:13.054Z,13.7
2023-01-02T07:36:16.150Z,13.7
2023-01-02T07:37:18.611Z,13.7
2023-01-02T07:38:22.867Z,13.7
2023-01-02T07:39:25.422Z,13.7
2023-01-02T07:40:33.004Z,13.7
2023-01-02T07:41:36.229Z,13.7
2023-01-02T07:42:39.630Z,13.7
2023-01-02T07:43:42.906Z,13.7
2023-01-02T07:44:46.079Z,13.7
2023-01-02T07:45:51.784Z,13.7
2023-01-02T07:46:56.001Z,13.7
2023-01-02T07:47:58.797Z,13.7
2023-01-02T07:49:02.158Z,13.7
2023-01-02T07:50:05.156Z,13.7
2023-01-02T07:51:08.579Z,13.7
2023-01-02T07:52:12.236Z,13.7
2023-01-02T07:53:15.018Z,13.7
2023-01-02T07:54:18.860Z,13.7
2023-01-02T07:55:22.223Z,13.7
2023-01-02T07:56:25.641Z,13.7
2023-01-02T07:57:28.793Z,13.7
2023-01-02T07:58:31.495Z,13.6
2023-01-02T07:59:35.211Z,13.7
2023-01-02T08:00:38.299Z,13.6
2023-01-02T08:01:42.016Z,13.6
2023-01-02T08:02:45.707Z,13.6
2023-01-02T08:03:49.079Z,13.7
2023-01-02T08:04:52.310Z,13.6
2023-01-02T08:05:55.379Z,13.6
2023-01-02T08:06:57.831Z,13.7
2023-01-02T08:08:00.835Z,13.7
2023-01-02T08:09:04.253Z,13.6
2023-01-02T08:10:08.436Z,13.6
2023-01-02T08:11:11.988Z,13.6
2023-01-02T08:12:14.438Z,13.6
2023-01-02T08:13:17.277Z,13.7
2023-01-02T08:14:24.532Z,13.7
2023-01-02T08:15:27.957Z,13.6
2023-01-02T08:16:31.827Z,13.6
2023-01-02T08:17:35.390Z,13.6
2023-01-02T08:18:38.128Z,13.6
2023-01-02T08:19:41.230Z,13.6
2023-01-02T08:20:44.943Z,13.7
2023-01-02T08:21:47.716Z,13.7
2023-01-02T08:22:50.425Z,13.7
2023-01-02T08:23:53.819Z,13.7
2023-01-02T08:24:57.044Z,13.7
2023-01-02T08:26:01.202Z,13.7
2023-01-02T08:27:04.911Z,13.7
2023-01-02T08:28:07.974Z,13.7
2023-01-02T08:29:10.763Z,13.7
2023-01-02T08:30:13.937Z,13.7
2023-01-02T08:31:18.365Z,13.7
2023-01-02T08:32:22.731Z,13.8
2023-01-02T08:33:25.536Z,13.7
2023-01-02T08:34:28.525Z,13.7
2023-01-02T08:35:39.868Z,13.8
2023-01-02T08:36:42.626Z,13.7
2023-01-02T08:37:51.514Z,13.7
2023-01-02T08:38:55.000Z,13.7
2023-01-02T08:39:57.796Z,13.8
2023-01-02T08:41:01.090Z,13.7
2023-01-02T08:42:05.113Z,13.8
2023-01-02T08:43:07.597Z,13.8
2023-01-02T08:44:11.256Z,13.8
2023-01-02T08:45:14.667Z,13.8
2023-01-02T08:46:18.297Z,13.8
2023-01-02T08:47:21.579Z,13.8
2023-01-02T08:48:24.456Z,13.8
2023-01-02T08:49:27.637Z,13.8
2023-01-02T08:50:30.125Z,13.9
2023-01-02T08:51:33.095Z,13.9
2023-01-02T08:52:36.562Z,13.9
2023-01-02T08:53:39.674Z,13.9
2023-01-02T08:54:42.381Z,13.9
2023-01-02T08:55:45.117Z,14
2023-01-02T08:56:48.255Z,14
2023-01-02T08:57:52.223Z,14
2023-01-02T08:58:55.279Z,14
2023-01-02T08:59:58.969Z,14
2023-01-02T09:01:02.061Z,14.1
2023-01-02T09:02:05.749Z,14.1
2023-01-02T09:03:09.757Z,14.1
2023-01-02T09:04:14.565Z,14.1
2023-01-02T09:05:17.470Z,14.2
2023-01-02T09:06:23.267Z,14.2
2023-01-02T09:07:26.615Z,14.2
2023-01-02T09:08:30.325Z,14.2
2023-01-02T09:09:33.601Z,14.2
2023-01-02T09:10:36.678Z,14.2
2023-01-02T09:11:40.451Z,14.3
2023-01-02T09:12:43.490Z,14.3
2023-01-02T09:13:47.516Z,14.3
2023-01-02T09:14:51.179Z,14.3
2023-01-02T09:15:54.233Z,14.3
2023-01-02T09:16:57.861Z,14.3
2023-01-02T09:18:01.578Z,14.3
2023-01-02T09:19:04.569Z,14.4
2023-01-02T09:20:08.032Z,14.4
2023-01-02T09:21:11.186Z,14.4
2023-01-02T09:22:14.175Z,14.4
2023-01-02T09:23:17.004Z,14.4
2023-01-02T09:24:20.057Z,14.4
2023-01-02T09:25:25.626Z,14.4
2023-01-02T09:26:29.020Z,14.4
2023-01-02T09:27:32.408Z,14.5
2023-01-02T09:28:36.177Z,14.5
2023-01-02T09:29:39.980Z,14.5
2023-01-02T09:30:43.308Z,14.5
2023-01-02T09:31:47.192Z,14.5
2023-01-02T09:32:50.054Z,14.5
2023-01-02T09:33:53.586Z,14.6
2023-01-02T09:34:56.404Z,14.6
2023-01-02T09:36:00.000Z,14.6
2023-01-02T09:37:04.076Z,14.6
2023-01-02T09:38:08.147Z,14.6
2023-01-02T09:39:11.252Z,14.7
2023-01-02T09:40:14.243Z,14.7
2023-01-02T09:41:17.901Z,14.7
2023-01-02T09:42:21.249Z,14.7
2023-01-02T09:43:24.685Z,14.7
2023-01-02T09:44:28.329Z,14.8
2023-01-02T09:45:32.477Z,14.8
2023-01-02T09:46:35.466Z,14.8
2023-01-02T09:47:39.151Z,14.8
2023-01-02T09:48:42.286Z,14.8
2023-01-02T09:49:45.277Z,14.8
2023-01-02T09:50:47.878Z,14.8
2023-01-02T09:51:50.705Z,14.8
2023-01-02T09:52:54.779Z,14.8
2023-01-02T09:53:58.197Z,14.8
2023-01-02T09:55:01.578Z,14.8
2023-01-02T09:56:04.157Z,14.8
2023-01-02T09:57:07.240Z,14.9
2023-01-02T09:58:10.001Z,14.8
2023-01-02T09:59:14.053Z,14.9
2023-01-02T10:00:17.583Z,14.9
2023-01-02T10:01:21.774Z,14.9
2023-01-02T10:02:25.326Z,14.9
2023-01-02T10:03:29.399Z,14.9
2023-01-02T10:04:33.273Z,14.9
2023-01-02T10:05:36.656Z,14.9
2023-01-02T10:06:39.157Z,14.9
2023-01-02T10:07:42.177Z,14.9
2023-01-02T10:08:45.586Z,14.9
2023-01-02T10:09:49.603Z,15
2023-01-02T10:10:52.677Z,15
2023-01-02T10:11:55.829Z,15
2023-01-02T10:12:59.567Z,15
2023-01-02T10:14:21.320Z,15
2023-01-02T10:15:47.107Z,15
2023-01-02T10:16:51.396Z,15
2023-01-02T10:17:54.212Z,15
2023-01-02T10:18:57.571Z,15
2023-01-02T10:20:00.951Z,15
2023-01-02T10:21:04.677Z,15
2023-01-02T10:22:07.701Z,15.1
2023-01-02T10:23:10.813Z,15
2023-01-02T10:24:13.880Z,15
2023-01-02T10:25:16.729Z,15.1
2023-01-02T10:26:18.645Z,15
2023-01-02T10:27:21.179Z,15.1
2023-01-02T10:28:24.245Z,15.1
2023-01-02T10:29:27.655Z,15.1
2023-01-02T10:30:31.050Z,15.1
2023-01-02T10:31:34.077Z,15.1
2023-01-02T10:32:38.177Z,15.1
2023-01-02T10:33:41.275Z,15.1
2023-01-02T10:34:44.602Z,15.1
2023-01-02T10:35:48.006Z,15.1
2023-01-02T10:36:50.455Z,15.1
2023-01-02T10:37:52.929Z,15.2
2023-01-02T10:38:57.067Z,15.2
2023-01-02T10:40:00.541Z,15.2
2023-01-02T10:41:04.216Z,15.2
2023-01-02T10:42:08.288Z,15.2
2023-01-02T10:43:11.468Z,15.2
2023-01-02T10:44:14.485Z,15.3
2023-01-02T10:45:17.605Z,15.3
2023-01-02T10:46:20.920Z,15.3
2023-01-02T10:47:25.056Z,15.3
2023-01-02T10:48:29.447Z,15.3
2023-01-02T10:49:32.834Z,15.3
2023-01-02T10:50:36.823Z,15.3
2023-01-02T10:51:39.542Z,15.3
2023-01-02T10:52:42.551Z,15.3
2023-01-02T10:53:45.407Z,15.3
2023-01-02T10:55:00.753Z,15.3
2023-01-02T10:56:04.606Z,15.3
2023-01-02T10:57:07.401Z,15.3
2023-01-02T10:58:10.639Z,15.3
2023-01-02T10:59:13.730Z,15.3
2023-01-02T11:00:19.134Z,15.3
2023-01-02T11:01:31.726Z,15.3
2023-01-02T11:02:35.282Z,15.3
2023-01-02T11:03:39.311Z,15.3
2023-01-02T11:04:42.569Z,15.4
2023-01-02T11:05:45.399Z,15.4
2023-01-02T11:06:49.475Z,15.3
2023-01-02T11:07:52.005Z,15.3
2023-01-02T11:08:55.293Z,15.3
2023-01-02T11:09:58.918Z,15.4
2023-01-02T11:11:01.722Z,15.4
2023-01-02T11:12:05.395Z,15.3
2023-01-02T11:13:08.567Z,15.4
2023-01-02T11:14:11.719Z,15.4
2023-01-02T11:15:15.031Z,15.4
2023-01-02T11:16:18.538Z,15.4
2023-01-02T11:17:22.595Z,15.4
2023-01-02T11:18:25.796Z,15.4
2023-01-02T11:19:31.032Z,15.4
2023-01-02T11:20:34.116Z,15.4
2023-01-02T11:21:37.011Z,15.4
2023-01-02T11:22:39.992Z,15.4
2023-01-02T11:23:42.539Z,15.4
2023-01-02T11:24:44.765Z,15.4
2023-01-02T11:25:48.135Z,15.4
2023-01-02T11:26:51.496Z,15.4
2023-01-02T11:27:54.500Z,15.4
2023-01-02T11:28:57.273Z,15.4
2023-01-02T11:30:00.674Z,15.4
2023-01-02T11:31:04.268Z,15.4
2023-01-02T11:32:07.946Z,15.4
2023-01-02T11:33:12.424Z,15.5
2023-01-02T11:34:16.337Z,15.5
2023-01-02T11:35:20.729Z,15.5
2023-01-02T11:36:24.475Z,15.5
2023-01-02T11:37:27.880Z,15.5
2023-01-02T11:38:31.870Z,15.5
2023-01-02T11:39:35.201Z,15.5
2023-01-02T11:40:37.759Z,15.5
2023-01-02T11:41:40.788Z,15.5
2023-01-02T11:42:43.845Z,15.5
2023-01-02T11:43:46.995Z,15.5
2023-01-02T11:44:51.047Z,15.5
2023-01-02T11:45:54.704Z,15.5
2023-01-02T11:46:58.829Z,15.5
2023-01-02T11:48:02.292Z,15.5
2023-01-02T11:49:04.797Z,15.5
2023-01-02T11:50:08.904Z,15.5
2023-01-02T11:51:18.453Z,15.5
2023-01-02T11:52:21.353Z,15.5
2023-01-02T11:53:24.052Z,15.5
2023-01-02T11:54:27.409Z,15.5
2023-01-02T11:55:30.599Z,15.5
2023-01-02T11:56:33.682Z,15.5
2023-01-02T11:57:36.793Z,15.5
2023-01-02T11:58:40.527Z,15.5
2023-01-02T11:59:43.799Z,15.5
2023-01-02T12:00:47.173Z,15.6
2023-01-02T12:01:50.401Z,15.5
2023-01-02T12:02:54.533Z,15.6
2023-01-02T12:03:58.949Z,15.6
2023-01-02T12:05:02.077Z,15.6
2023-01-02T12:06:04.550Z,15.6
2023-01-02T12:07:08.653Z,15.6
2023-01-02T12:08:11.950Z,15.6
2023-01-02T12:09:15.081Z,15.6
2023-01-02T12:10:18.414Z,15.6
2023-01-02T12:11:22.638Z,15.6
2023-01-02T12:12:25.730Z,15.6
2023-01-02T12:13:28.560Z,15.6
2023-01-02T12:14:30.985Z,15.6
2023-01-02T12:15:34.333Z,15.6
2023-01-02T12:16:38.200Z,15.6
2023-01-02T12:17:41.853Z,15.6
2023-01-02T12:18:44.704Z,15.6
2023-01-02T12:19:48.350Z,15.6
2023-01-02T12:20:51.850Z,15.6
2023-01-02T12:21:55.030Z,15.6
2023-01-02T12:22:59.241Z,15.6
2023-01-02T12:24:02.273Z,15.6
2023-01-02T12:25:05.087Z,15.6
2023-01-02T12:26:10.631Z,15.6
2023-01-02T12:27:14.119Z,15.6
2023-01-02T12:28:16.567Z,15.6
2023-01-02T12:29:49.475Z,15.6
2023-01-02T12:30:52.856Z,15.6
2023-01-02T12:31:55.541Z,15.6
2023-01-02T12:33:09.097Z,15.6
2023-01-02T12:34:11.551Z,15.6
2023-01-02T12:35:14.928Z,15.6
2023-01-02T12:36:18.298Z,15.6
2023-01-02T12:37:21.038Z,15.6
2023-01-02T12:38:33.874Z,15.6
2023-01-02T12:39:36.962Z,15.6
2023-01-02T12:40:40.722Z,15.6
2023-01-02T12:42:03.126Z,15.6
2023-01-02T12:43:06.852Z,15.7
2023-01-02T12:44:10.215Z,15.6
2023-01-02T12:45:14.000Z,15.6
2023-01-02T12:46:17.355Z,15.6
2023-01-02T12:47:21.014Z,15.6
2023-01-02T12:48:24.366Z,15.6
2023-01-02T12:49:27.777Z,15.6
2023-01-02T12:50:31.125Z,15.6
2023-01-02T12:51:33.358Z,15.6
2023-01-02T12:52:36.962Z,15.6
2023-01-02T12:53:40.765Z,15.6
2023-01-02T12:54:43.616Z,15.6
2023-01-02T12:55:46.518Z,15.6
2023-01-02T12:56:49.521Z,15.6
2023-01-02T12:57:52.705Z,15.6
2023-01-02T12:58:56.365Z,15.6
2023-01-02T12:59:59.167Z,15.6
2023-01-02T13:01:03.084Z,15.6
2023-01-02T13:02:07.214Z,15.5
2023-01-02T13:03:13.628Z,15.5
2023-01-02T13:04:25.423Z,15.5
2023-01-02T13:05:28.455Z,15.4
2023-01-02T13:06:47.440Z,15.4
2023-01-02T13:07:50.514Z,15.4
2023-01-02T13:08:54.635Z,15.4
2023-01-02T13:09:57.143Z,15.3
2023-01-02T13:11:00.490Z,15.4
2023-01-02T13:12:02.945Z,15.3
2023-01-02T13:13:07.035Z,15.3
2023-01-02T13:14:10.136Z,15.3
2023-01-02T13:15:13.153Z,15.3
2023-01-02T13:16:26.595Z,15.2
2023-01-02T13:17:30.271Z,15.2
2023-01-02T13:18:32.950Z,15.2
2023-01-02T13:19:36.022Z,15.1
2023-01-02T13:20:39.472Z,15.1
2023-01-02T13:21:43.213Z,15.1
2023-01-02T13:22:56.294Z,15.1
2023-01-02T13:24:00.570Z,15
2023-01-02T13:25:03.711Z,15
2023-01-02T13:26:07.174Z,14.9
2023-01-02T13:27:11.200Z,14.9
2023-01-02T13:28:14.002Z,14.8
2023-01-02T13:29:17.463Z,14.8
2023-01-02T13:30:21.410Z,14.7
2023-01-02T13:31:49.223Z,14.7
2023-01-02T13:32:52.954Z,14.7
2023-01-02T13:33:56.767Z,14.6
2023-01-02T13:35:00.092Z,14.6
2023-01-02T13:36:03.284Z,14.6
2023-01-02T13:37:06.774Z,14.6
2023-01-02T13:38:10.546Z,14.6
2023-01-02T13:39:14.792Z,14.5
2023-01-02T13:40:17.550Z,14.5
2023-01-02T13:41:20.567Z,14.5
2023-01-02T13:42:23.128Z,14.4
2023-01-02T13:43:27.183Z,14.4
2023-01-02T13:44:30.617Z,14.4
2023-01-02T13:45:33.923Z,14.3
2023-01-02T13:47:04.788Z,14.3
2023-01-02T13:48:08.806Z,14.3
2023-01-02T13:49:11.516Z,14.2
2023-01-02T13:50:14.804Z,14.2
2023-01-02T13:51:17.509Z,14.2
2023-01-02T13:52:20.669Z,14.1
2023-01-02T13:53:23.929Z,14.1
2023-01-02T13:54:28.189Z,14.1
2023-01-02T13:55:32.306Z,14
2023-01-02T13:56:35.601Z,14
2023-01-02T13:57:39.278Z,14
2023-01-02T13:58:42.634Z,14
2023-01-02T13:59:47.613Z,13.9
2023-01-02T14:00:56.808Z,13.9
2023-01-02T14:02:00.657Z,13.8
2023-01-02T14:03:04.857Z,13.8
2023-01-02T14:04:08.045Z,13.8
2023-01-02T14:05:11.446Z,13.7
2023-01-02T14:06:13.945Z,13.7
2023-01-02T14:07:16.734Z,13.6
2023-01-02T14:08:20.166Z,13.6
2023-01-02T14:09:23.159Z,13.6
2023-01-02T14:10:27.416Z,13.5
2023-01-02T14:11:57.613Z,13.5
2023-01-02T14:13:01.645Z,13.4